Time;durP1;ratioP1;P1;durP2;ratioP2;P2;SDS_P1;SDS_P2;PMS_P1;PMS_P2;Temp;Humidity;BMP_temperature;BMP_pressure;BME280_temperature;BME280_humidity;BME280_pressure;Samples;Min_cycle;Max_cycle;Signal;HPM_P1;HPM_P2
2022/09/29 00:00:27;;;;;;;4.32;2.83;;;12.10;94.50;;;;;;5033173;28;20018;-75
2022/09/29 00:02:53;;;;;;;5.82;3.38;;;12.10;94.80;;;;;;5033187;28;20100;-75
2022/09/29 00:05:19;;;;;;;4.85;3.40;;;12.10;94.50;;;;;;5032667;28;20068;-75
2022/09/29 00:07:44;;;;;;;4.43;2.70;;;12.10;94.40;;;;;;5032827;28;20037;-75
2022/09/29 00:10:10;;;;;;;6.10;3.35;;;12.10;94.40;;;;;;5032782;28;20091;-75
2022/09/29 00:12:36;;;;;;;4.15;2.80;;;12.10;94.30;;;;;;5032682;28;20040;-74
2022/09/29 00:15:02;;;;;;;3.72;2.60;;;12.10;94.40;;;;;;5032803;28;20044;-75
2022/09/29 00:17:28;;;;;;;3.97;3.20;;;12.10;94.40;;;;;;5032389;28;20477;-75
2022/09/29 00:19:53;;;;;;;4.40;3.15;;;12.10;94.30;;;;;;5032991;28;20025;-75
2022/09/29 00:22:19;;;;;;;5.25;2.80;;;12.10;94.40;;;;;;5032957;28;20064;-74
2022/09/29 00:24:46;;;;;;;4.88;2.97;;;12.00;94.40;;;;;;5033042;28;20493;-74
2022/09/29 00:27:14;;;;;;;3.92;2.88;;;12.00;94.30;;;;;;5032059;28;20509;-74
2022/09/29 00:29:40;;;;;;;4.90;2.90;;;11.80;94.40;;;;;;5032942;28;20025;-74
2022/09/29 00:32:05;;;;;;;3.78;2.65;;;11.90;94.80;;;;;;5032944;28;20035;-74
2022/09/29 00:34:31;;;;;;;4.55;2.97;;;11.90;94.50;;;;;;5034277;28;20105;-75
2022/09/29 00:36:57;;;;;;;4.13;2.97;;;11.90;94.60;;;;;;5036026;28;20029;-74
2022/09/29 00:39:22;;;;;;;4.30;3.83;;;11.90;94.50;;;;;;5036431;28;20493;-75
2022/09/29 00:41:48;;;;;;;5.72;3.30;;;11.90;94.50;;;;;;5035941;28;20420;-75
2022/09/29 00:44:13;;;;;;;5.18;2.90;;;11.80;94.40;;;;;;5036245;28;20112;-75
2022/09/29 00:46:44;;;;;;;3.70;2.80;;;11.70;94.50;;;;;;5036246;28;20036;-75
2022/09/29 00:49:39;;;;;;;3.40;2.95;;;11.60;94.60;;;;;;5035998;28;20029;-75
2022/09/29 00:52:10;;;;;;;7.40;3.80;;;11.60;94.70;;;;;;5035905;28;20097;-75
2022/09/29 00:54:47;;;;;;;4.20;2.90;;;11.60;94.70;;;;;;5036189;28;20481;-75
2022/09/29 00:57:16;;;;;;;4.15;2.97;;;11.50;94.80;;;;;;5035774;28;20018;-75
2022/09/29 00:59:52;;;;;;;4.05;3.30;;;11.60;94.80;;;;;;5035491;28;20029;-75
2022/09/29 01:02:18;;;;;;;5.68;3.53;;;11.60;94.80;;;;;;5035757;28;20477;-75
2022/09/29 01:04:50;;;;;;;3.58;3.05;;;11.60;94.80;;;;;;5035594;28;20030;-75
2022/09/29 01:07:19;;;;;;;4.33;3.20;;;11.60;94.80;;;;;;5035611;28;20063;-75
2022/09/29 01:09:45;;;;;;;4.93;3.42;;;11.70;94.80;;;;;;5035673;28;20260;-75
2022/09/29 01:12:11;;;;;;;5.03;3.70;;;11.70;94.70;;;;;;5035654;28;20030;-76
2022/09/29 01:14:37;;;;;;;3.70;3.20;;;11.60;94.80;;;;;;5035536;28;20542;-75
2022/09/29 01:17:04;;;;;;;4.68;2.90;;;11.60;94.90;;;;;;5035704;28;20026;-75
2022/09/29 01:19:50;;;;;;;3.58;2.85;;;11.60;94.80;;;;;;5035392;28;20022;-75
2022/09/29 01:22:43;;;;;;;5.05;3.00;;;11.60;94.80;;;;;;5035477;28;20033;-75
2022/09/29 01:25:45;;;;;;;7.18;3.40;;;11.60;94.80;;;;;;5035738;28;20022;-76
2022/09/29 01:28:19;;;;;;;3.65;2.88;;;11.70;94.80;;;;;;5035568;28;20439;-75
2022/09/29 01:31:05;;;;;;;6.63;3.72;;;11.60;94.70;;;;;;5035151;28;20572;-75
2022/09/29 01:33:49;;;;;;;5.80;3.00;;;11.60;94.60;;;;;;5034932;28;20029;-75
2022/09/29 01:36:27;;;;;;;5.50;3.88;;;11.60;94.60;;;;;;5035414;28;20033;-75
2022/09/29 01:39:07;;;;;;;5.10;3.45;;;11.50;94.50;;;;;;5035289;28;20029;-75
2022/09/29 01:41:38;;;;;;;4.72;3.03;;;11.50;94.70;;;;;;5034773;28;20063;-75
2022/09/29 01:44:12;;;;;;;4.93;2.88;;;11.50;94.70;;;;;;5035054;28;20025;-75
2022/09/29 01:46:47;;;;;;;3.53;2.90;;;11.50;94.70;;;;;;5035139;28;20037;-75
2022/09/29 01:49:14;;;;;;;5.65;3.40;;;11.50;94.70;;;;;;5034844;28;20535;-75
2022/09/29 01:51:54;;;;;;;3.38;2.85;;;11.60;94.70;;;;;;5034523;28;20036;-75
2022/09/29 01:54:46;;;;;;;3.78;2.88;;;11.50;94.60;;;;;;5035172;28;20052;-75
2022/09/29 01:57:23;;;;;;;3.45;3.10;;;11.60;94.60;;;;;;5031943;28;20059;-75
2022/09/29 01:59:55;;;;;;;3.72;2.88;;;11.60;94.60;;;;;;5034625;28;20022;-75
2022/09/29 02:02:43;;;;;;;3.53;2.88;;;11.50;94.60;;;;;;5034877;28;20029;-75
2022/09/29 02:05:18;;;;;;;4.28;2.97;;;11.50;94.60;;;;;;5034568;28;20033;-75
2022/09/29 02:07:46;;;;;;;3.97;3.25;;;11.50;94.60;;;;;;5034405;28;20040;-75
2022/09/29 02:10:34;;;;;;;6.15;3.13;;;11.60;94.60;;;;;;5034459;28;20021;-75
2022/09/29 02:13:04;;;;;;;3.75;3.15;;;11.50;94.50;;;;;;5033979;28;20026;-75
2022/09/29 02:15:33;;;;;;;3.42;3.10;;;11.40;94.50;;;;;;5034605;28;20105;-75
2022/09/29 02:18:05;;;;;;;3.70;3.40;;;11.40;94.50;;;;;;5034483;28;20037;-75
2022/09/29 02:20:31;;;;;;;3.40;2.60;;;11.30;94.50;;;;;;5034328;28;20036;-75
2022/09/29 02:22:57;;;;;;;4.72;3.30;;;11.30;94.70;;;;;;5034255;28;20112;-75
2022/09/29 02:25:23;;;;;;;3.25;2.65;;;11.20;94.60;;;;;;5034530;28;20052;-75
2022/09/29 02:27:49;;;;;;;3.47;2.58;;;11.30;94.60;;;;;;5033972;28;20072;-75
2022/09/29 02:30:16;;;;;;;4.13;3.28;;;11.30;94.60;;;;;;5034019;28;20025;-75
2022/09/29 02:32:42;;;;;;;6.10;2.70;;;11.30;94.50;;;;;;5034010;28;20478;-75
2022/09/29 02:35:10;;;;;;;3.35;2.78;;;11.30;94.50;;;;;;5034243;28;20030;-75
2022/09/29 02:37:45;;;;;;;5.47;3.50;;;11.40;94.50;;;;;;5033681;28;20040;-75
2022/09/29 02:40:25;;;;;;;3.55;2.90;;;11.40;94.50;;;;;;5034161;28;20104;-75
2022/09/29 02:42:57;;;;;;;4.43;3.20;;;11.40;94.50;;;;;;5033723;28;20049;-75
2022/09/29 02:45:25;;;;;;;3.70;3.03;;;11.40;94.40;;;;;;5033798;28;20418;-76
2022/09/29 02:48:10;;;;;;;5.65;3.13;;;11.40;94.40;;;;;;5033570;28;20048;-75
2022/09/29 02:51:12;;;;;;;4.10;3.35;;;11.40;94.40;;;;;;5033617;28;20029;-75
2022/09/29 02:54:00;;;;;;;7.13;3.17;;;11.40;94.30;;;;;;5029037;28;20029;-75
2022/09/29 02:56:44;;;;;;;5.30;3.17;;;11.30;94.20;;;;;;5033461;28;20080;-75
2022/09/29 02:59:29;;;;;;;4.82;2.90;;;11.40;94.30;;;;;;5033828;28;20025;-76
2022/09/29 03:01:56;;;;;;;6.72;3.08;;;11.30;94.30;;;;;;5033521;28;20028;-76
2022/09/29 03:04:25;;;;;;;3.58;3.03;;;11.30;94.50;;;;;;5033777;28;20358;-76
2022/09/29 03:06:51;;;;;;;3.80;3.30;;;11.30;94.40;;;;;;5033451;28;20079;-76
2022/09/29 03:09:17;;;;;;;4.20;3.45;;;11.20;94.40;;;;;;5033289;28;20037;-75
2022/09/29 03:11:43;;;;;;;4.88;2.97;;;11.10;94.40;;;;;;5033565;28;20095;-74
2022/09/29 03:14:08;;;;;;;5.10;3.38;;;11.10;94.50;;;;;;5033649;28;20030;-75
2022/09/29 03:16:35;;;;;;;4.13;3.05;;;11.20;94.50;;;;;;5033346;28;20052;-75
2022/09/29 03:19:02;;;;;;;3.65;2.88;;;11.30;94.60;;;;;;5033254;28;20095;-76
2022/09/29 03:21:28;;;;;;;3.15;2.80;;;11.20;94.30;;;;;;5033622;28;20017;-74
2022/09/29 03:23:53;;;;;;;3.95;3.17;;;11.20;94.40;;;;;;5033324;28;20061;-75
2022/09/29 03:26:19;;;;;;;4.25;3.42;;;11.20;94.40;;;;;;5032956;28;20044;-74
2022/09/29 03:28:45;;;;;;;3.35;3.05;;;11.20;94.40;;;;;;5033283;28;20524;-75
2022/09/29 03:31:10;;;;;;;3.35;3.05;;;11.20;94.40;;;;;;5033283;28;20025;-75
2022/09/29 03:33:38;;;;;;;3.83;3.13;;;11.20;94.70;;;;;;5033055;28;20029;-74
2022/09/29 03:36:05;;;;;;;4.15;3.75;;;11.30;94.40;;;;;;5033129;28;20445;-75
2022/09/29 03:38:31;;;;;;;6.05;3.50;;;11.20;94.40;;;;;;5032978;28;20389;-75
2022/09/29 03:40:57;;;;;;;4.60;3.35;;;11.20;94.40;;;;;;5033046;28;20037;-75
2022/09/29 03:43:23;;;;;;;6.45;3.50;;;11.20;94.30;;;;;;5033108;28;20034;-74
2022/09/29 03:45:50;;;;;;;6.28;3.85;;;11.10;94.30;;;;;;5033187;28;20017;-75
2022/09/29 03:48:16;;;;;;;6.07;3.55;;;11.10;94.30;;;;;;5033278;28;20045;-75
2022/09/29 03:50:43;;;;;;;4.05;3.58;;;11.10;94.30;;;;;;5032811;28;20469;-75
2022/09/29 03:53:09;;;;;;;6.38;3.42;;;11.10;94.30;;;;;;5033092;28;20037;-74
2022/09/29 03:55:34;;;;;;;4.65;3.47;;;11.10;94.30;;;;;;5032859;28;20071;-75
2022/09/29 03:58:00;;;;;;;6.85;3.47;;;11.00;94.30;;;;;;5033124;28;20022;-74
2022/09/29 04:00:25;;;;;;;4.40;3.30;;;11.00;94.40;;;;;;5032970;28;20026;-74
2022/09/29 04:02:53;;;;;;;4.65;3.50;;;10.90;94.30;;;;;;5033207;28;20033;-74
2022/09/29 04:05:19;;;;;;;3.88;3.50;;;10.90;94.40;;;;;;5033033;28;20021;-74
2022/09/29 04:07:45;;;;;;;7.18;3.88;;;10.90;94.50;;;;;;5032646;28;20439;-74
2022/09/29 04:10:10;;;;;;;5.03;3.83;;;10.80;94.50;;;;;;5035674;28;20022;-75
2022/09/29 04:12:36;;;;;;;4.85;3.55;;;10.80;94.40;;;;;;5036943;28;20485;-75
2022/09/29 04:15:02;;;;;;;4.72;3.83;;;10.80;94.50;;;;;;5036785;28;20025;-75
2022/09/29 04:17:28;;;;;;;4.80;3.50;;;10.80;94.50;;;;;;5036520;28;20029;-75
2022/09/29 04:19:53;;;;;;;6.90;3.90;;;10.80;94.50;;;;;;5036582;28;20033;-74
2022/09/29 04:22:19;;;;;;;6.72;3.75;;;10.80;94.50;;;;;;5036740;28;20033;-74
2022/09/29 04:24:47;;;;;;;3.70;3.40;;;10.80;94.50;;;;;;5036356;28;20465;-74
2022/09/29 04:27:13;;;;;;;4.40;3.60;;;10.70;94.60;;;;;;5035882;28;20560;-74
2022/09/29 04:29:38;;;;;;;4.30;3.90;;;10.70;94.60;;;;;;5036585;28;20028;-75
2022/09/29 04:32:05;;;;;;;4.20;3.53;;;10.70;94.60;;;;;;5036467;28;20108;-74
2022/09/29 04:34:31;;;;;;;6.10;4.13;;;10.60;94.50;;;;;;5036264;28;20033;-74
2022/09/29 04:36:57;;;;;;;5.45;4.57;;;10.60;94.40;;;;;;5036207;28;20025;-75
2022/09/29 04:39:22;;;;;;;9.55;4.88;;;10.50;94.50;;;;;;5036120;28;20492;-74
2022/09/29 04:41:48;;;;;;;6.63;5.00;;;10.50;94.50;;;;;;5036075;28;20041;-74
2022/09/29 04:44:14;;;;;;;8.23;4.68;;;10.50;94.50;;;;;;5036399;28;20026;-74
2022/09/29 04:46:39;;;;;;;8.07;5.03;;;10.50;94.40;;;;;;5035728;28;20373;-74
2022/09/29 04:49:05;;;;;;;21.98;5.22;;;10.40;94.50;;;;;;5035952;28;20263;-77
2022/09/29 04:51:31;;;;;;;29.55;6.57;;;10.30;94.60;;;;;;5035892;28;20044;-76
2022/09/29 04:53:57;;;;;;;30.95;6.93;;;10.20;94.90;;;;;;5036078;28;20465;-77
2022/09/29 04:56:24;;;;;;;16.33;6.32;;;10.00;95.00;;;;;;5035751;28;20028;-77
2022/09/29 04:58:50;;;;;;;30.35;6.25;;;10.00;95.30;;;;;;5035860;28;20111;-77
2022/09/29 05:01:15;;;;;;;19.23;5.90;;;9.90;95.30;;;;;;5035711;28;20068;-77
2022/09/29 05:03:41;;;;;;;9.77;5.32;;;9.90;95.40;;;;;;5035772;28;20026;-77
2022/09/29 05:06:08;;;;;;;6.40;4.88;;;10.00;95.50;;;;;;5035639;28;20032;-78
2022/09/29 05:08:34;;;;;;;11.00;4.70;;;10.10;95.50;;;;;;5035392;28;20509;-79
2022/09/29 05:11:05;;;;;;;14.02;4.90;;;10.30;95.70;;;;;;5035841;28;20026;-78
2022/09/29 05:13:31;;;;;;;39.53;5.90;;;10.40;95.60;;;;;;5035183;28;20056;-77
2022/09/29 05:15:57;;;;;;;19.88;5.82;;;10.40;95.30;;;;;;5035553;28;20107;-78
2022/09/29 05:18:24;;;;;;;59.13;7.55;;;10.30;95.20;;;;;;5035282;28;20049;-78
2022/09/29 05:20:49;;;;;;;21.73;7.75;;;10.40;95.10;;;;;;5034852;28;20041;-75
2022/09/29 05:23:15;;;;;;;21.30;7.20;;;10.30;95.10;;;;;;5035173;28;20025;-74
2022/09/29 05:25:42;;;;;;;47.97;7.10;;;10.30;95.30;;;;;;5034748;28;20500;-75
2022/09/29 05:28:09;;;;;;;31.50;8.35;;;10.40;95.40;;;;;;5035363;28;20038;-75
2022/09/29 05:30:35;;;;;;;41.90;8.35;;;10.40;95.20;;;;;;5035208;28;20052;-75
2022/09/29 05:33:04;;;;;;;21.65;7.35;;;10.40;95.30;;;;;;5034779;28;20484;-75
2022/09/29 05:35:32;;;;;;;19.65;6.63;;;10.50;95.20;;;;;;5034781;28;20025;-75
2022/09/29 05:37:58;;;;;;;24.27;7.53;;;10.60;95.40;;;;;;5034402;28;20435;-74
2022/09/29 05:40:23;;;;;;;22.48;7.50;;;10.60;95.20;;;;;;5034931;28;20036;-75
2022/09/29 05:42:50;;;;;;;21.65;7.22;;;10.70;95.20;;;;;;5035010;28;20025;-75
2022/09/29 05:45:16;;;;;;;21.92;7.43;;;10.80;95.10;;;;;;5034793;28;20065;-75
2022/09/29 05:47:43;;;;;;;16.55;7.18;;;10.80;95.00;;;;;;5034581;28;20076;-74
2022/09/29 05:50:13;;;;;;;12.68;6.45;;;10.80;94.80;;;;;;5034743;28;20071;-76
2022/09/29 05:52:39;;;;;;;13.70;6.30;;;10.90;94.80;;;;;;5034890;28;20029;-77
2022/09/29 05:55:08;;;;;;;21.83;6.35;;;10.80;94.80;;;;;;5034830;28;20389;-75
2022/09/29 05:57:34;;;;;;;24.63;7.13;;;11.00;94.90;;;;;;5034503;28;20025;-75
2022/09/29 06:00:01;;;;;;;22.00;8.50;;;11.00;94.80;;;;;;5034392;28;20421;-75
2022/09/29 06:02:26;;;;;;;18.02;8.05;;;10.90;94.70;;;;;;5034386;28;20473;-75
2022/09/29 06:04:52;;;;;;;23.13;8.35;;;10.90;94.80;;;;;;5034256;28;20032;-74
2022/09/29 06:07:17;;;;;;;33.40;8.48;;;10.80;94.80;;;;;;5034358;28;20037;-76
2022/09/29 06:09:43;;;;;;;22.77;8.80;;;10.80;94.80;;;;;;5033120;28;20030;-72
2022/09/29 06:12:09;;;;;;;20.48;8.50;;;10.70;94.70;;;;;;5033644;28;20029;-74
2022/09/29 06:14:34;;;;;;;32.38;8.60;;;10.60;94.70;;;;;;5034063;28;20427;-77
2022/09/29 06:17:00;;;;;;;20.45;8.02;;;10.60;94.80;;;;;;5033897;28;20027;-74
2022/09/29 06:19:25;;;;;;;19.67;8.85;;;10.40;95.00;;;;;;5034019;28;20037;-74
2022/09/29 06:21:51;;;;;;;32.63;8.75;;;10.30;95.20;;;;;;5033836;28;20028;-72
2022/09/29 06:24:16;;;;;;;44.28;8.63;;;10.30;95.60;;;;;;5043038;28;20025;-74
2022/09/29 06:26:42;;;;;;;13.43;7.32;;;10.20;95.80;;;;;;5047463;28;20068;-75
2022/09/29 06:29:08;;;;;;;14.60;7.35;;;10.30;95.90;;;;;;5044609;28;20021;-76
2022/09/29 06:31:33;;;;;;;11.70;7.97;;;10.40;95.90;;;;;;5033397;28;20018;-75
2022/09/29 06:34:02;;;;;;;9.40;7.03;;;10.40;95.70;;;;;;5034089;28;20017;-75
2022/09/29 06:39:17;;;;;;;8.05;6.55;;;10.60;95.50;;;;;;5034307;28;20112;-76
2022/09/29 06:41:47;;;;;;;13.23;7.10;;;10.60;95.60;;;;;;5033762;28;20050;-75
2022/09/29 06:44:14;;;;;;;8.25;6.97;;;10.60;95.60;;;;;;5034071;28;20033;-76
2022/09/29 06:46:40;;;;;;;12.70;6.60;;;10.60;95.70;;;;;;5033376;28;20108;-76
2022/09/29 06:49:06;;;;;;;12.32;7.30;;;10.70;95.70;;;;;;5033645;28;20041;-75
2022/09/29 06:51:31;;;;;;;10.02;7.55;;;10.70;95.70;;;;;;5033845;28;20025;-76
2022/09/29 06:53:57;;;;;;;9.40;7.72;;;10.70;95.70;;;;;;5033582;28;20184;-76
2022/09/29 06:56:22;;;;;;;14.35;8.00;;;10.70;95.70;;;;;;5033341;28;20026;-77
2022/09/29 06:58:48;;;;;;;17.38;7.70;;;10.60;95.80;;;;;;5033482;28;20053;-77
2022/09/29 07:01:13;;;;;;;8.50;7.57;;;10.60;95.90;;;;;;5033829;28;20025;-76
2022/09/29 07:03:40;;;;;;;9.48;6.80;;;10.70;95.80;;;;;;5039408;28;20460;-76
2022/09/29 07:06:07;;;;;;;13.43;7.53;;;10.80;95.80;;;;;;5050005;28;20029;-76
2022/09/29 07:08:37;;;;;;;18.80;7.88;;;10.90;95.80;;;;;;5043784;28;20409;-73
2022/09/29 07:11:05;;;;;;;16.85;7.55;;;10.80;95.70;;;;;;5049861;28;20399;-77
2022/09/29 07:13:31;;;;;;;15.48;8.32;;;10.90;95.70;;;;;;5038940;28;20040;-76
2022/09/29 07:16:05;;;;;;;10.63;8.07;;;10.90;95.70;;;;;;5043771;28;20412;-77
2022/09/29 07:18:33;;;;;;;19.45;9.60;;;10.90;95.80;;;;;;5045725;28;20040;-74
2022/09/29 07:20:59;;;;;;;20.33;9.70;;;10.90;95.90;;;;;;5049463;28;20035;-76
2022/09/29 07:23:25;;;;;;;21.25;10.55;;;10.90;96.00;;;;;;5040729;28;20016;-75
2022/09/29 07:25:51;;;;;;;15.05;9.05;;;10.80;96.10;;;;;;5044370;28;20060;-74
2022/09/29 07:28:17;;;;;;;12.30;8.65;;;10.80;96.20;;;;;;5040242;28;20025;-74
2022/09/29 07:30:42;;;;;;;18.85;9.57;;;10.90;96.10;;;;;;5034085;28;20030;-73
2022/09/29 07:33:08;;;;;;;13.38;8.55;;;11.00;96.00;;;;;;5041512;28;20074;-74
2022/09/29 07:35:34;;;;;;;9.82;8.65;;;11.00;95.90;;;;;;5042840;28;20071;-75
2022/09/29 07:37:59;;;;;;;11.55;9.35;;;11.10;95.80;;;;;;5041290;28;20503;-74
2022/09/29 07:40:26;;;;;;;21.75;9.85;;;11.10;95.70;;;;;;5033787;28;20082;-75
2022/09/29 07:42:53;;;;;;;10.85;9.07;;;11.20;95.50;;;;;;5047093;28;21135;-73
2022/09/29 07:45:19;;;;;;;14.23;11.90;;;11.20;95.50;;;;;;5056837;28;20025;-73
2022/09/29 07:47:45;;;;;;;14.60;11.30;;;11.30;95.60;;;;;;5055673;28;20029;-72
2022/09/29 07:50:11;;;;;;;23.80;11.23;;;11.20;95.80;;;;;;5056889;28;20021;-73
2022/09/29 07:52:37;;;;;;;12.93;10.73;;;11.20;95.90;;;;;;5057037;28;20579;-73
2022/09/29 07:55:04;;;;;;;15.38;12.02;;;11.20;95.80;;;;;;5057054;28;20025;-73
2022/09/29 07:57:29;;;;;;;14.95;11.50;;;11.30;95.80;;;;;;5056640;28;20029;-73
2022/09/29 07:59:57;;;;;;;16.42;13.30;;;11.30;95.80;;;;;;5056742;28;20096;-73
2022/09/29 08:02:23;;;;;;;18.30;12.63;;;11.20;95.70;;;;;;5056423;28;20464;-73
2022/09/29 08:04:49;;;;;;;17.83;12.10;;;11.10;95.90;;;;;;5056426;28;20025;-73
2022/09/29 08:07:14;;;;;;;14.30;11.77;;;11.20;95.90;;;;;;5056592;28;20037;-74
2022/09/29 08:09:40;;;;;;;14.02;12.13;;;11.20;95.80;;;;;;5056785;28;20023;-73
2022/09/29 08:12:06;;;;;;;20.55;13.63;;;11.30;95.80;;;;;;5055566;28;20472;-73
2022/09/29 08:14:32;;;;;;;13.15;11.63;;;11.40;95.70;;;;;;5056672;28;20025;-73
2022/09/29 08:16:58;;;;;;;14.68;12.95;;;11.40;95.60;;;;;;5056799;28;20079;-73
2022/09/29 08:19:24;;;;;;;15.18;12.75;;;11.50;95.50;;;;;;5056442;28;20025;-73
2022/09/29 08:21:49;;;;;;;14.13;12.65;;;11.50;95.50;;;;;;5056398;28;20526;-73
2022/09/29 08:24:18;;;;;;;19.08;16.08;;;11.60;95.50;;;;;;5056294;28;20029;-73
2022/09/29 08:26:44;;;;;;;18.58;14.88;;;11.60;95.70;;;;;;5055919;28;20045;-73
2022/09/29 08:29:11;;;;;;;19.40;16.10;;;11.60;95.70;;;;;;5056514;28;20025;-73
2022/09/29 08:31:37;;;;;;;19.05;15.55;;;11.60;95.80;;;;;;5056200;28;20025;-73
2022/09/29 08:34:02;;;;;;;16.77;14.43;;;11.60;96.00;;;;;;5056319;28;20032;-74
2022/09/29 08:36:28;;;;;;;20.42;16.08;;;11.60;96.00;;;;;;5056058;28;20437;-72
2022/09/29 08:38:55;;;;;;;18.60;16.27;;;11.60;95.90;;;;;;5055747;28;20113;-73
2022/09/29 08:41:27;;;;;;;20.05;17.85;;;11.60;95.80;;;;;;5056248;28;20383;-74
2022/09/29 08:44:28;;;;;;;24.10;19.80;;;11.60;95.90;;;;;;5055945;28;20480;-73
2022/09/29 08:47:01;;;;;;;21.38;17.08;;;11.50;96.30;;;;;;5051224;28;20077;-73
2022/09/29 08:49:41;;;;;;;21.67;17.23;;;11.50;96.40;;;;;;5056065;28;20061;-73
2022/09/29 08:52:13;;;;;;;22.55;20.02;;;11.60;96.30;;;;;;5055959;28;20028;-73
2022/09/29 08:54:41;;;;;;;21.30;18.65;;;11.80;96.20;;;;;;5055218;28;20033;-73
2022/09/29 08:57:18;;;;;;;25.05;22.35;;;11.80;96.20;;;;;;5056049;28;20361;-73
2022/09/29 08:59:57;;;;;;;27.40;23.13;;;11.80;96.40;;;;;;5055903;28;20114;-73
2022/09/29 09:02:46;;;;;;;26.45;23.42;;;11.70;96.60;;;;;;5055394;28;20491;-72
2022/09/29 09:05:18;;;;;;;28.25;22.65;;;11.70;96.60;;;;;;5055644;28;20040;-74
2022/09/29 09:08:01;;;;;;;27.25;23.73;;;11.70;96.60;;;;;;5055521;28;20044;-73
2022/09/29 09:10:29;;;;;;;;;;;11.70;96.70;;;;;;5055912;28;20114;-73
2022/09/29 09:13:29;;;;;;;25.90;22.85;;;11.80;96.70;;;;;;5055366;28;19968;-73
2022/09/29 09:16:10;;;;;;;33.55;26.60;;;11.90;96.60;;;;;;5055016;28;20024;-73
2022/09/29 09:19:20;;;;;;;32.50;26.50;;;12.00;96.70;;;;;;5055564;28;20128;-73
2022/09/29 09:22:23;;;;;;;30.92;27.00;;;12.00;96.80;;;;;;5032982;28;20060;-73
2022/09/29 09:25:00;;;;;;;;;;;12.10;97.00;;;;;;5055458;28;20080;-73
2022/09/29 09:27:51;;;;;;;30.90;26.20;;;12.30;97.10;;;;;;5054892;28;19921;-73
2022/09/29 09:30:18;;;;;;;33.03;26.10;;;12.50;97.00;;;;;;5055223;28;20025;-73
2022/09/29 09:32:53;;;;;;;31.08;25.77;;;12.60;96.60;;;;;;5055087;28;20472;-73
2022/09/29 09:35:31;;;;;;;29.88;24.67;;;12.60;96.90;;;;;;5055163;28;20171;-73
2022/09/29 09:38:09;;;;;;;32.47;25.15;;;12.80;97.00;;;;;;5054942;28;20032;-73
2022/09/29 09:40:45;;;;;;;28.88;23.75;;;12.90;97.00;;;;;;5054736;28;20051;-73
2022/09/29 09:43:28;;;;;;;24.48;21.88;;;13.20;96.40;;;;;;5054488;28;20033;-73
2022/09/29 09:45:57;;;;;;;;;;;13.20;96.40;;;;;;5055133;28;20033;-72
2022/09/29 09:48:31;;;;;;;19.33;16.92;;;13.40;96.00;;;;;;5054518;28;20287;-73
2022/09/29 09:50:59;;;;;;;22.00;19.65;;;13.60;95.60;;;;;;5054961;28;20029;-73
2022/09/29 09:53:39;;;;;;;24.00;18.52;;;13.80;95.00;;;;;;5054386;28;20028;-73
2022/09/29 09:56:57;;;;;;;22.20;18.90;;;13.80;94.70;;;;;;5054367;28;20612;-73
2022/09/29 09:59:43;;;;;;;20.50;16.58;;;13.80;94.50;;;;;;5038705;28;20029;-73
2022/09/29 10:02:20;;;;;;;17.42;15.05;;;14.00;94.80;;;;;;5054540;28;20029;-73
2022/09/29 10:04:51;;;;;;;21.23;16.02;;;14.20;94.30;;;;;;5054162;28;20410;-73
2022/09/29 10:07:20;;;;;;;20.55;15.55;;;14.40;94.10;;;;;;5053226;28;20047;-73
2022/09/29 10:09:46;;;;;;;16.08;14.48;;;14.60;94.20;;;;;;5054386;28;20021;-73
2022/09/29 10:12:17;;;;;;;18.80;14.50;;;14.80;93.60;;;;;;5054550;28;20025;-73
2022/09/29 10:15:00;;;;;;;15.90;14.30;;;14.90;93.40;;;;;;5054056;28;20526;-73
2022/09/29 10:17:36;;;;;;;18.90;16.60;;;15.00;92.80;;;;;;5054108;28;20037;-73
2022/09/29 10:20:07;;;;;;;22.45;15.05;;;15.20;92.90;;;;;;5054207;28;20381;-73
2022/09/29 10:22:33;;;;;;;16.67;13.73;;;15.00;92.60;;;;;;5054162;28;20017;-73
2022/09/29 10:25:11;;;;;;;15.10;13.52;;;14.90;93.10;;;;;;5054104;28;20024;-73
2022/09/29 10:27:42;;;;;;;15.68;13.02;;;15.10;93.20;;;;;;5053388;28;20049;-73
2022/09/29 10:30:20;;;;;;;16.45;13.52;;;15.30;93.20;;;;;;5054231;28;20063;-73
2022/09/29 10:32:46;;;;;;;14.15;12.60;;;15.60;92.50;;;;;;5053885;28;20491;-73
2022/09/29 10:35:22;;;;;;;14.65;13.15;;;15.70;92.30;;;;;;5054200;28;20357;-73
2022/09/29 10:38:04;;;;;;;13.55;11.40;;;15.70;92.30;;;;;;5053823;28;20025;-74
2022/09/29 10:40:30;;;;;;;12.50;10.95;;;15.70;92.20;;;;;;5053681;28;20025;-74
2022/09/29 10:42:56;;;;;;;12.77;11.48;;;15.80;92.00;;;;;;5053715;28;20036;-73
2022/09/29 10:45:29;;;;;;;13.68;10.85;;;16.00;91.80;;;;;;5054013;28;20028;-73
2022/09/29 10:47:57;;;;;;;12.68;10.05;;;16.20;92.20;;;;;;5053751;28;20079;-74
2022/09/29 10:50:35;;;;;;;12.40;9.80;;;16.40;91.70;;;;;;5053510;28;20346;-74
2022/09/29 10:53:05;;;;;;;9.60;8.57;;;16.60;90.70;;;;;;5053566;28;20025;-74
2022/09/29 10:55:46;;;;;;;14.65;10.23;;;16.80;90.50;;;;;;5053753;28;20032;-74
2022/09/29 10:58:33;;;;;;;10.60;9.45;;;17.00;90.30;;;;;;5053813;28;20025;-74
2022/09/29 11:01:15;;;;;;;10.45;9.23;;;16.90;90.10;;;;;;5053419;28;20421;-74
2022/09/29 11:04:05;;;;;;;9.35;7.95;;;17.00;90.40;;;;;;5053375;28;20025;-74
2022/09/29 11:06:33;;;;;;;8.70;7.40;;;17.20;89.10;;;;;;5053386;28;20024;-74
2022/09/29 11:09:19;;;;;;;8.60;7.75;;;17.20;87.40;;;;;;5053101;28;20151;-74
2022/09/29 11:11:47;;;;;;;12.55;8.85;;;17.30;88.70;;;;;;5049304;28;20032;-74
2022/09/29 11:14:37;;;;;;;9.30;8.30;;;17.50;87.70;;;;;;5053167;28;20484;-74
2022/09/29 11:17:26;;;;;;;9.68;8.35;;;17.50;86.50;;;;;;5052963;28;20078;-74
2022/09/29 11:19:54;;;;;;;11.25;8.52;;;17.60;86.40;;;;;;5053386;28;20020;-75
2022/09/29 11:22:42;;;;;;;10.43;7.97;;;17.70;86.70;;;;;;5052804;28;20074;-74
2022/09/29 11:25:29;;;;;;;8.55;7.35;;;17.80;85.70;;;;;;5052958;28;20099;-74
2022/09/29 11:28:20;;;;;;;12.65;7.93;;;17.90;85.10;;;;;;5052677;28;20053;-74
2022/09/29 11:30:55;;;;;;;10.32;7.70;;;18.00;85.10;;;;;;5053066;28;20102;-74
2022/09/29 11:33:36;;;;;;;9.45;7.25;;;18.10;84.50;;;;;;5052739;28;20387;-74
2022/09/29 11:36:26;;;;;;;7.60;6.72;;;18.00;83.00;;;;;;5052717;28;20029;-74
2022/09/29 11:39:16;;;;;;;10.20;6.43;;;18.00;82.70;;;;;;5053124;28;20036;-74
2022/09/29 11:42:08;;;;;;;7.60;6.10;;;17.90;82.80;;;;;;5053078;28;20444;-74
2022/09/29 11:44:45;;;;;;;8.82;5.55;;;17.90;84.60;;;;;;5053210;28;20044;-74
2022/09/29 11:47:44;;;;;;;7.43;5.60;;;17.90;84.00;;;;;;5052708;28;20020;-74
2022/09/29 11:50:15;;;;;;;7.82;5.43;;;17.70;83.00;;;;;;5052538;28;20029;-74
2022/09/29 11:52:52;;;;;;;6.30;4.70;;;17.50;82.80;;;;;;5053185;28;20017;-74
2022/09/29 11:55:26;;;;;;;5.03;4.38;;;17.40;82.40;;;;;;5052782;28;20020;-74
2022/09/29 11:58:08;;;;;;;4.97;4.47;;;17.30;82.40;;;;;;5052701;28;20013;-74
2022/09/29 12:00:49;;;;;;;7.32;4.80;;;17.20;82.40;;;;;;5052531;28;20460;-74
2022/09/29 12:03:46;;;;;;;6.30;4.53;;;17.20;83.00;;;;;;5052521;28;20108;-75
2022/09/29 12:06:32;;;;;;;8.48;3.42;;;17.20;82.60;;;;;;5041209;28;20037;-74
2022/09/29 12:09:35;;;;;;;5.00;3.10;;;17.00;82.90;;;;;;5041458;28;20128;-74
2022/09/29 12:12:54;;;;;;;6.30;3.80;;;17.00;83.20;;;;;;5052958;28;20025;-74
2022/09/29 12:15:49;;;;;;;6.95;3.08;;;17.00;83.60;;;;;;5036599;28;20064;-73
2022/09/29 12:18:28;;;;;;;4.10;2.58;;;17.20;83.50;;;;;;5052462;28;20021;-73
2022/09/29 12:20:55;;;;;;;4.78;3.45;;;17.50;82.90;;;;;;5052446;28;20028;-73
2022/09/29 12:23:24;;;;;;;6.30;2.80;;;17.70;82.00;;;;;;5052723;28;20104;-74
2022/09/29 12:26:08;;;;;;;5.50;2.70;;;17.70;81.20;;;;;;5052003;28;20392;-74
2022/09/29 12:28:54;;;;;;;2.95;2.08;;;17.90;80.10;;;;;;5052169;28;20488;-74
2022/09/29 12:31:26;;;;;;;1.88;1.27;;;18.10;76.60;;;;;;5055510;28;20029;-74
2022/09/29 12:34:43;;;;;;;2.33;1.60;;;18.10;76.20;;;;;;5056536;28;20032;-74
2022/09/29 12:37:39;;;;;;;2.67;1.10;;;18.20;74.80;;;;;;5046783;28;20033;-74
2022/09/29 12:40:09;;;;;;;3.20;1.50;;;18.30;75.10;;;;;;5056463;28;20028;-74
2022/09/29 12:43:00;;;;;;;2.47;1.10;;;18.40;75.80;;;;;;5055925;28;20021;-74
2022/09/29 12:45:45;;;;;;;4.05;1.67;;;18.50;74.30;;;;;;5056049;28;20036;-74
2022/09/29 12:48:34;;;;;;;5.45;1.55;;;18.60;74.50;;;;;;5055769;28;20064;-74
2022/09/29 12:51:12;;;;;;;2.55;1.20;;;18.60;74.30;;;;;;5052464;28;20041;-74
2022/09/29 12:53:52;;;;;;;1.85;1.05;;;18.70;73.50;;;;;;5055843;28;20036;-74
2022/09/29 12:56:26;;;;;;;2.00;1.05;;;18.80;72.10;;;;;;5055820;28;20469;-74
2022/09/29 12:58:57;;;;;;;6.00;1.70;;;18.70;72.90;;;;;;5056027;28;20032;-73
2022/09/29 13:01:35;;;;;;;3.92;0.90;;;18.80;72.60;;;;;;5055611;28;20387;-74
2022/09/29 13:04:28;;;;;;;3.55;1.20;;;18.80;73.00;;;;;;5055585;28;20472;-75
2022/09/29 13:07:21;;;;;;;2.72;1.20;;;19.00;72.50;;;;;;5055517;28;20120;-74
2022/09/29 13:10:18;;;;;;;1.63;0.90;;;19.20;73.10;;;;;;5055187;28;20021;-74